Time;durP1;ratioP1;P1;durP2;ratioP2;P2;SDS_P1;SDS_P2;PMS_P1;PMS_P2;Temp;Humidity;BMP_temperature;BMP_pressure;BME280_temperature;BME280_humidity;BME280_pressure;Samples;Min_cycle;Max_cycle;Signal;HPM_P1;HPM_P2
2023/01/05 00:02:07;;;;;;;0.43;0.25;;;19.50;54.80;;;;;;6329335;28;20054;-69
2023/01/05 00:05:08;;;;;;;0.57;0.35;;;19.50;54.80;;;;;;6345775;28;20023;-70
2023/01/05 00:08:09;;;;;;;0.50;0.30;;;19.50;54.80;;;;;;6328957;28;20020;-69
2023/01/05 00:24:35;;;;;;;1.20;0.40;;;19.50;54.80;;;;;;6319938;28;20042;-70
2023/01/05 00:27:36;;;;;;;0.98;0.40;;;19.50;54.80;;;;;;6320249;28;20542;-69
2023/01/05 00:30:45;;;;;;;1.00;0.40;;;19.50;54.80;;;;;;6319955;28;20385;-69
2023/01/05 00:33:46;;;;;;;0.47;0.35;;;19.50;54.80;;;;;;6338491;28;20042;-70
2023/01/05 00:36:46;;;;;;;1.02;0.40;;;19.50;54.80;;;;;;6345448;28;20410;-69
2023/01/05 00:39:48;;;;;;;1.40;0.50;;;19.50;54.80;;;;;;6345103;28;20020;-69
2023/01/05 00:42:49;;;;;;;1.30;0.50;;;19.50;54.80;;;;;;6345013;28;20032;-69
2023/01/05 00:45:50;;;;;;;0.55;0.30;;;19.50;54.80;;;;;;6344410;28;20026;-69
2023/01/05 00:48:50;;;;;;;0.82;0.30;;;19.50;54.80;;;;;;6345182;28;20020;-70
2023/01/05 00:51:51;;;;;;;0.75;0.30;;;19.50;54.80;;;;;;6344588;28;20111;-69
2023/01/05 00:54:52;;;;;;;0.82;0.32;;;19.50;54.80;;;;;;6319635;28;20469;-70
2023/01/05 00:57:52;;;;;;;0.70;0.32;;;19.50;54.80;;;;;;6327081;28;20047;-69
2023/01/05 01:00:53;;;;;;;0.70;0.32;;;19.50;54.80;;;;;;6343204;28;20058;-70
2023/01/05 01:03:55;;;;;;;1.08;0.40;;;19.50;54.80;;;;;;6329065;28;20043;-69
2023/01/05 01:06:56;;;;;;;0.65;0.30;;;19.50;54.80;;;;;;6319466;28;20024;-69
2023/01/05 01:09:56;;;;;;;1.73;0.47;;;19.40;54.70;;;;;;6319075;28;20020;-70
2023/01/05 01:12:57;;;;;;;0.73;0.43;;;19.50;54.80;;;;;;6324706;28;20023;-70
2023/01/05 01:16:04;;;;;;;2.15;0.50;;;19.50;54.80;;;;;;6344037;28;20487;-70
2023/01/05 01:19:04;;;;;;;0.73;0.35;;;19.40;54.70;;;;;;6329472;28;20452;-69
2023/01/05 01:22:05;;;;;;;1.35;0.43;;;19.50;54.80;;;;;;6317284;28;20043;-69
2023/01/05 01:25:06;;;;;;;0.73;0.40;;;19.50;54.80;;;;;;6318506;28;20024;-69
2023/01/05 01:28:07;;;;;;;0.65;0.38;;;19.50;54.80;;;;;;6318831;28;20035;-69
2023/01/05 01:31:08;;;;;;;0.43;0.30;;;19.50;54.80;;;;;;6317268;28;20507;-69
2023/01/05 01:34:08;;;;;;;0.90;0.40;;;19.50;54.80;;;;;;6317937;28;20032;-70
2023/01/05 01:37:09;;;;;;;1.48;0.40;;;19.40;54.70;;;;;;6318589;28;20063;-70
2023/01/05 01:40:10;;;;;;;1.75;0.70;;;19.50;54.80;;;;;;6318278;28;20016;-69
2023/01/05 01:43:19;;;;;;;1.50;0.55;;;19.50;54.80;;;;;;6318028;28;20055;-69
2023/01/05 01:46:21;;;;;;;1.95;0.68;;;19.40;54.70;;;;;;6318155;28;20035;-70
2023/01/05 01:49:22;;;;;;;0.43;0.30;;;19.40;54.70;;;;;;6318308;28;20023;-69
2023/01/05 01:52:25;;;;;;;0.70;0.28;;;19.50;54.80;;;;;;6318115;28;20749;-70
2023/01/05 01:55:28;;;;;;;0.73;0.47;;;19.50;54.80;;;;;;6338651;28;20032;-71
2023/01/05 01:58:31;;;;;;;1.27;0.40;;;19.50;54.80;;;;;;6343343;28;20031;-69
2023/01/05 02:01:32;;;;;;;0.98;0.32;;;19.40;54.80;;;;;;6343298;28;20481;-70
2023/01/05 02:04:35;;;;;;;1.02;0.43;;;19.50;54.80;;;;;;6343038;28;20016;-69
2023/01/05 02:07:44;;;;;;;1.17;0.40;;;19.40;54.80;;;;;;6343171;28;20488;-69
2023/01/05 02:11:16;;;;;;;0.75;0.30;;;19.50;54.80;;;;;;6321699;28;20104;-69
2023/01/05 02:14:37;;;;;;;0.73;0.38;;;19.50;54.80;;;;;;6340921;28;20054;-69
2023/01/05 02:18:12;;;;;;;1.45;0.50;;;19.40;54.80;;;;;;6317726;28;20024;-70
2023/01/05 02:21:31;;;;;;;0.85;0.50;;;19.40;54.80;;;;;;6317733;28;20024;-70
2023/01/05 02:25:03;;;;;;;0.90;0.52;;;19.40;54.80;;;;;;6316908;28;20401;-69
2023/01/05 02:28:31;;;;;;;1.65;0.50;;;19.40;54.80;;;;;;6317936;28;20024;-69
2023/01/05 02:32:03;;;;;;;0.85;0.40;;;19.40;54.80;;;;;;6311729;28;20035;-69
2023/01/05 02:35:45;;;;;;;0.55;0.40;;;19.40;54.80;;;;;;6307836;28;20036;-69
2023/01/05 02:39:07;;;;;;;1.48;0.40;;;19.40;54.80;;;;;;6330213;28;20134;-69
2023/01/05 02:42:22;;;;;;;0.98;0.38;;;19.50;54.80;;;;;;6323598;28;20027;-69
2023/01/05 02:45:23;;;;;;;1.48;0.50;;;19.40;54.80;;;;;;6319956;28;20028;-69
2023/01/05 02:48:24;;;;;;;0.70;0.30;;;19.40;54.80;;;;;;6320667;28;20060;-69
2023/01/05 02:51:32;;;;;;;0.40;0.35;;;19.40;54.80;;;;;;6342539;28;20019;-70
2023/01/05 02:54:45;;;;;;;1.30;0.47;;;19.40;54.80;;;;;;6340664;28;20028;-69
2023/01/05 02:58:09;;;;;;;0.65;0.30;;;19.40;54.80;;;;;;6321974;28;20501;-69
2023/01/05 03:01:16;;;;;;;0.43;0.30;;;19.40;54.80;;;;;;6322539;28;20028;-70
2023/01/05 03:04:38;;;;;;;0.47;0.35;;;19.40;54.80;;;;;;6321678;28;20013;-69
2023/01/05 03:07:42;;;;;;;0.85;0.40;;;19.50;54.80;;;;;;6321914;28;20020;-70
2023/01/05 03:14:35;;;;;;;0.80;0.30;;;19.40;54.70;;;;;;6322709;28;20031;-71
2023/01/05 03:17:43;;;;;;;0.85;0.40;;;19.40;54.70;;;;;;6346910;28;20019;-69
2023/01/05 03:20:48;;;;;;;1.17;0.30;;;19.50;54.80;;;;;;6347316;28;20081;-69
2023/01/05 03:37:54;;;;;;;1.42;0.60;;;19.40;54.70;;;;;;6295806;28;20025;-70
2023/01/05 03:40:59;;;;;;;1.30;0.40;;;19.40;54.80;;;;;;6314694;28;20027;-68
2023/01/05 03:44:00;;;;;;;2.30;0.77;;;19.40;54.70;;;;;;6334352;28;20107;-70
2023/01/05 03:47:01;;;;;;;1.08;0.43;;;19.40;54.80;;;;;;6320839;28;20100;-70
2023/01/05 03:50:01;;;;;;;0.93;0.40;;;19.40;54.80;;;;;;6320862;28;20023;-69
2023/01/05 03:53:02;;;;;;;1.08;0.50;;;19.40;54.80;;;;;;6320717;28;20028;-69
2023/01/05 03:56:03;;;;;;;2.13;0.50;;;19.40;54.80;;;;;;6329625;28;20089;-70
2023/01/05 03:59:04;;;;;;;2.20;0.50;;;19.40;54.70;;;;;;6345899;28;20476;-69
2023/01/05 04:02:05;;;;;;;0.60;0.40;;;19.40;54.80;;;;;;6346122;28;20073;-69
2023/01/05 04:05:05;;;;;;;0.88;0.30;;;19.40;54.80;;;;;;6345461;28;20016;-70
2023/01/05 04:08:06;;;;;;;0.55;0.30;;;19.40;54.80;;;;;;6344490;28;20030;-70
2023/01/05 04:11:16;;;;;;;0.65;0.38;;;19.40;54.80;;;;;;6345195;28;20685;-70
2023/01/05 04:14:17;;;;;;;1.27;0.32;;;19.40;54.80;;;;;;6345561;28;20557;-70
2023/01/05 04:17:18;;;;;;;1.10;0.40;;;19.40;54.70;;;;;;6345395;28;20024;-70
2023/01/05 04:20:18;;;;;;;0.85;0.40;;;19.40;54.80;;;;;;6344062;28;20388;-70
2023/01/05 04:23:20;;;;;;;0.98;0.30;;;19.40;54.80;;;;;;6320508;28;20067;-70
2023/01/05 04:26:21;;;;;;;2.10;0.57;;;19.40;54.70;;;;;;6320095;28;20016;-69
2023/01/05 04:29:21;;;;;;;0.95;0.40;;;19.40;54.80;;;;;;6320007;28;20420;-70
2023/01/05 04:32:22;;;;;;;0.90;0.30;;;19.40;54.70;;;;;;6335604;28;20098;-70
2023/01/05 04:35:23;;;;;;;0.88;0.47;;;19.40;54.70;;;;;;6343783;28;20536;-69
2023/01/05 04:38:23;;;;;;;0.75;0.40;;;19.40;54.80;;;;;;6345102;28;20110;-72
2023/01/05 04:41:24;;;;;;;1.23;0.38;;;19.40;54.80;;;;;;6343498;28;20031;-70
2023/01/05 04:44:25;;;;;;;0.30;0.25;;;19.40;54.80;;;;;;6345041;28;20020;-69
2023/01/05 04:47:25;;;;;;;1.00;0.60;;;19.40;54.80;;;;;;6330967;28;20024;-69
2023/01/05 04:50:27;;;;;;;1.42;0.60;;;19.40;54.80;;;;;;6319351;28;20024;-69
2023/01/05 04:53:27;;;;;;;1.58;0.50;;;19.40;54.80;;;;;;6340868;28;20031;-69
2023/01/05 04:56:28;;;;;;;1.33;0.50;;;19.40;54.80;;;;;;6340068;28;20075;-69
2023/01/05 05:03:25;;;;;;;1.02;0.55;;;19.40;54.80;;;;;;6319005;28;20024;-72
2023/01/05 05:06:27;;;;;;;0.50;0.30;;;19.40;54.80;;;;;;6319165;28;20055;-70
2023/01/05 05:09:28;;;;;;;1.50;0.50;;;19.40;54.80;;;;;;6316915;28;20020;-70
2023/01/05 05:12:28;;;;;;;1.17;0.30;;;19.40;54.80;;;;;;6314485;28;20423;-70
2023/01/05 05:15:29;;;;;;;0.85;0.30;;;19.40;54.80;;;;;;6319037;28;20559;-69
2023/01/05 05:18:30;;;;;;;1.20;0.30;;;19.40;54.80;;;;;;6318210;28;20128;-69
2023/01/05 05:21:30;;;;;;;0.73;0.30;;;19.40;54.80;;;;;;6318928;28;20478;-70
2023/01/05 05:24:32;;;;;;;1.35;0.52;;;19.40;54.80;;;;;;6318005;28;20225;-69
2023/01/05 05:27:33;;;;;;;0.63;0.32;;;19.40;54.80;;;;;;6318504;28;20066;-70
2023/01/05 05:30:34;;;;;;;0.65;0.25;;;19.40;54.80;;;;;;6318211;28;20028;-69
2023/01/05 05:33:36;;;;;;;0.98;0.40;;;19.40;54.80;;;;;;6335271;28;20063;-70
2023/01/05 05:36:37;;;;;;;0.95;0.30;;;19.40;54.80;;;;;;6343690;28;20016;-70
2023/01/05 05:39:38;;;;;;;1.48;0.65;;;19.40;54.80;;;;;;6343806;28;20027;-70
2023/01/05 05:42:39;;;;;;;0.77;0.35;;;19.40;54.80;;;;;;6335764;28;20764;-69
2023/01/05 05:45:39;;;;;;;1.35;0.60;;;19.40;54.80;;;;;;6342709;28;20080;-69
2023/01/05 05:48:40;;;;;;;0.60;0.30;;;19.40;54.80;;;;;;6325949;28;20074;-69
2023/01/05 05:51:41;;;;;;;1.05;0.40;;;19.40;54.80;;;;;;6316745;28;20028;-70
2023/01/05 05:54:41;;;;;;;0.95;0.32;;;19.40;54.80;;;;;;6316890;28;20035;-70
2023/01/05 05:57:42;;;;;;;0.93;0.47;;;19.40;54.80;;;;;;6316216;28;20056;-70
2023/01/05 06:00:43;;;;;;;1.45;0.77;;;19.40;54.70;;;;;;6316478;28;20535;-70
2023/01/05 06:03:44;;;;;;;0.43;0.40;;;19.40;54.70;;;;;;6308314;28;20020;-70
2023/01/05 06:06:44;;;;;;;1.00;0.40;;;19.40;54.70;;;;;;6292703;28;20094;-70
2023/01/05 06:09:45;;;;;;;1.05;0.45;;;19.40;54.70;;;;;;6335511;28;20039;-70
2023/01/05 06:12:45;;;;;;;0.65;0.40;;;19.40;54.70;;;;;;6320997;28;20563;-70
2023/01/05 06:15:46;;;;;;;0.82;0.43;;;19.40;54.70;;;;;;6317787;28;20115;-70
2023/01/05 06:18:47;;;;;;;2.05;0.73;;;19.40;54.70;;;;;;6316276;28;20193;-70
2023/01/05 06:21:48;;;;;;;3.00;0.52;;;19.40;54.70;;;;;;6322429;28;20024;-69
2023/01/05 06:24:49;;;;;;;0.90;0.50;;;19.40;54.70;;;;;;6343043;28;20532;-70
2023/01/05 06:27:49;;;;;;;0.70;0.38;;;19.40;54.70;;;;;;6341997;28;20028;-70
2023/01/05 06:30:50;;;;;;;1.33;0.43;;;19.40;54.70;;;;;;6322910;28;20067;-70
2023/01/05 06:33:51;;;;;;;0.40;0.40;;;19.40;54.70;;;;;;6331622;28;20472;-70
2023/01/05 06:36:52;;;;;;;1.55;0.40;;;19.40;54.70;;;;;;6347617;28;20024;-70
2023/01/05 06:39:55;;;;;;;0.60;0.43;;;19.40;54.70;;;;;;6347682;28;20132;-72
2023/01/05 06:42:55;;;;;;;0.80;0.38;;;19.40;54.70;;;;;;6346233;28;20031;-70
2023/01/05 06:45:56;;;;;;;1.13;0.43;;;19.40;54.70;;;;;;6345938;28;20019;-69
2023/01/05 06:48:57;;;;;;;0.80;0.30;;;19.40;54.70;;;;;;6346371;28;20024;-70
2023/01/05 06:51:57;;;;;;;0.90;0.30;;;19.40;54.70;;;;;;6347106;28;20084;-70
2023/01/05 06:54:58;;;;;;;0.68;0.40;;;19.40;54.70;;;;;;6329831;28;20449;-70
2023/01/05 06:57:58;;;;;;;0.47;0.30;;;19.40;54.70;;;;;;6321725;28;20048;-70
2023/01/05 07:00:59;;;;;;;1.00;0.57;;;19.40;54.60;;;;;;6309064;28;20468;-70
2023/01/05 07:04:00;;;;;;;0.77;0.45;;;19.40;54.70;;;;;;6315066;28;20075;-70
2023/01/05 07:07:00;;;;;;;0.70;0.40;;;19.40;54.60;;;;;;6349334;28;20384;-70
2023/01/05 07:10:01;;;;;;;0.43;0.32;;;19.40;54.60;;;;;;6333810;28;20468;-70
2023/01/05 07:13:02;;;;;;;0.50;0.40;;;19.40;54.60;;;;;;6323633;28;20024;-70
2023/01/05 07:16:03;;;;;;;0.47;0.30;;;19.40;54.60;;;;;;6323808;28;20031;-70
2023/01/05 07:19:03;;;;;;;1.02;0.40;;;19.40;54.60;;;;;;6323820;28;20389;-70
2023/01/05 07:22:04;;;;;;;1.40;0.50;;;19.40;54.60;;;;;;6323572;28;20032;-70
2023/01/05 07:25:05;;;;;;;2.15;0.55;;;19.40;54.60;;;;;;6323727;28;20031;-70
2023/01/05 07:28:06;;;;;;;0.70;0.47;;;19.40;54.60;;;;;;6323156;28;20096;-70
2023/01/05 07:31:07;;;;;;;0.28;0.20;;;19.40;54.60;;;;;;6344846;28;20024;-70
2023/01/05 07:34:09;;;;;;;1.00;0.45;;;19.40;54.60;;;;;;6348582;28;20031;-70
2023/01/05 07:37:10;;;;;;;0.68;0.50;;;19.40;54.60;;;;;;6348784;28;20034;-70
2023/01/05 07:40:11;;;;;;;0.50;0.30;;;19.40;54.60;;;;;;6348554;28;20027;-70
2023/01/05 07:43:11;;;;;;;0.63;0.45;;;19.40;54.60;;;;;;6347497;28;20711;-70
2023/01/05 07:46:12;;;;;;;0.52;0.32;;;19.40;54.60;;;;;;6348171;28;20026;-70
2023/01/05 07:49:14;;;;;;;0.90;0.30;;;19.40;54.60;;;;;;6346920;28;20024;-69
2023/01/05 07:52:15;;;;;;;1.08;0.47;;;19.40;54.60;;;;;;6348263;28;20035;-70
2023/01/05 07:55:16;;;;;;;0.60;0.30;;;19.40;54.60;;;;;;6335183;28;20024;-70
2023/01/05 07:58:17;;;;;;;0.63;0.30;;;19.40;54.60;;;;;;6321569;28;20031;-70
2023/01/05 08:01:17;;;;;;;1.02;0.40;;;19.40;54.60;;;;;;6340523;28;20024;-70
2023/01/05 08:04:18;;;;;;;0.30;0.30;;;19.40;54.60;;;;;;6347937;28;20120;-70
2023/01/05 08:07:19;;;;;;;0.73;0.38;;;19.40;54.50;;;;;;6348224;28;20471;-70
2023/01/05 08:10:28;;;;;;;0.30;0.30;;;19.40;54.40;;;;;;6345047;28;20035;-70
2023/01/05 08:16:48;;;;;;;0.63;0.25;;;19.40;54.50;;;;;;6322750;28;20028;-70
2023/01/05 08:19:49;;;;;;;0.57;0.30;;;19.40;54.60;;;;;;6326155;28;20451;-70
2023/01/05 08:22:51;;;;;;;0.55;0.30;;;19.40;54.50;;;;;;6347401;28;20594;-70
2023/01/05 08:25:55;;;;;;;0.63;0.30;;;19.40;54.50;;;;;;6347484;27;20020;-70
2023/01/05 08:28:56;;;;;;;0.60;0.30;;;19.40;54.50;;;;;;6347590;28;20019;-70
2023/01/05 08:31:57;;;;;;;0.45;0.30;;;19.40;54.50;;;;;;6327858;28;20040;-70
2023/01/05 08:34:57;;;;;;;0.57;0.30;;;19.40;54.50;;;;;;6323401;28;20107;-71
2023/01/05 08:37:58;;;;;;;0.47;0.40;;;19.40;54.40;;;;;;6338800;28;20035;-70
2023/01/05 08:40:59;;;;;;;0.60;0.40;;;19.40;54.50;;;;;;6321298;28;20039;-70
2023/01/05 08:44:01;;;;;;;0.77;0.40;;;19.40;54.50;;;;;;6335284;28;20072;-70
2023/01/05 08:47:02;;;;;;;0.47;0.22;;;19.40;54.50;;;;;;6346149;28;20023;-70
2023/01/05 08:50:04;;;;;;;1.05;0.40;;;19.40;54.50;;;;;;6335253;28;20051;-69
2023/01/05 08:53:05;;;;;;;1.13;0.50;;;19.40;54.60;;;;;;6320694;28;20035;-71
2023/01/05 08:56:06;;;;;;;0.40;0.40;;;19.40;54.60;;;;;;6330499;28;20048;-70
2023/01/05 08:59:10;;;;;;;4.97;0.50;;;19.40;54.60;;;;;;6331910;28;20568;-71
2023/01/05 09:02:11;;;;;;;3.80;0.52;;;19.40;54.60;;;;;;6319079;28;20565;-71
2023/01/05 09:05:12;;;;;;;6.15;0.70;;;19.40;54.60;;;;;;6319527;28;20062;-71
2023/01/05 09:08:12;;;;;;;2.83;0.45;;;19.40;54.60;;;;;;6345491;28;20476;-71
2023/01/05 09:11:20;;;;;;;3.30;0.63;;;19.40;54.60;;;;;;6336644;28;20680;-70
2023/01/05 09:14:20;;;;;;;0.82;0.52;;;19.40;54.50;;;;;;6334151;28;20496;-71
2023/01/05 09:17:21;;;;;;;1.30;0.60;;;19.40;54.60;;;;;;6345413;28;20023;-70
2023/01/05 09:20:22;;;;;;;3.92;1.23;;;19.40;54.60;;;;;;6345448;28;20024;-71
2023/01/05 09:23:22;;;;;;;4.70;1.48;;;19.40;54.60;;;;;;6340113;28;20024;-70
2023/01/05 09:26:23;;;;;;;8.70;2.20;;;19.40;54.50;;;;;;6311101;28;20054;-71
2023/01/05 09:29:24;;;;;;;7.25;2.85;;;19.40;54.50;;;;;;6317899;28;20120;-71
2023/01/05 09:32:25;;;;;;;11.15;2.85;;;19.40;54.60;;;;;;6345594;28;20780;-71
2023/01/05 09:35:25;;;;;;;11.88;4.00;;;19.40;54.60;;;;;;6323657;28;20055;-71
2023/01/05 09:38:26;;;;;;;10.98;3.85;;;19.40;54.60;;;;;;6322653;28;20432;-71
2023/01/05 09:41:49;;;;;;;12.07;3.70;;;19.40;54.60;;;;;;6345020;28;20399;-71
2023/01/05 09:44:56;;;;;;;15.60;4.20;;;19.40;54.60;;;;;;6330963;28;20484;-71
2023/01/05 09:47:59;;;;;;;10.48;4.38;;;19.40;54.70;;;;;;6319546;28;20057;-71
2023/01/05 09:51:00;;;;;;;9.80;4.03;;;19.40;54.60;;;;;;6335260;28;20476;-71
2023/01/05 09:54:01;;;;;;;12.95;4.22;;;19.40;54.60;;;;;;6319202;28;20081;-71
2023/01/05 09:57:04;;;;;;;10.75;4.38;;;19.40;54.70;;;;;;6327214;28;20043;-71
2023/01/05 10:00:07;;;;;;;13.70;4.05;;;19.40;54.70;;;;;;6344594;28;20384;-71
2023/01/05 10:03:13;;;;;;;7.95;3.55;;;19.40;54.60;;;;;;6345110;28;20450;-71
2023/01/05 10:06:15;;;;;;;12.48;4.05;;;19.40;54.70;;;;;;6339204;28;20077;-71
2023/01/05 10:09:27;;;;;;;9.57;3.60;;;19.40;54.70;;;;;;6343546;28;20111;-70
2023/01/05 10:16:02;;;;;;;11.18;4.22;;;19.40;54.60;;;;;;6344360;28;20114;-71
2023/01/05 10:19:09;;;;;;;9.82;3.40;;;19.40;54.70;;;;;;6323570;28;20367;-70
2023/01/05 10:22:43;;;;;;;6.60;3.28;;;19.40;54.70;;;;;;6337933;28;20023;-71
2023/01/05 10:25:57;;;;;;;7.88;3.05;;;19.40;54.80;;;;;;6313773;28;20020;-70
2023/01/05 10:29:21;;;;;;;9.00;3.58;;;19.40;54.80;;;;;;6294350;28;20036;-71
2023/01/05 10:32:29;;;;;;;10.98;3.35;;;19.40;54.70;;;;;;6324425;28;20027;-71
2023/01/05 10:35:30;;;;;;;10.65;3.55;;;19.40;54.80;;;;;;6342692;28;20437;-71
2023/01/05 10:39:29;;;;;;;6.60;3.28;;;19.40;54.80;;;;;;6318242;28;20028;-70
2023/01/05 10:43:27;;;;;;;6.72;3.10;;;19.40;54.80;;;;;;6269624;28;20043;-70
2023/01/05 10:46:28;;;;;;;13.13;3.60;;;19.40;54.80;;;;;;6277064;28;20436;-69
2023/01/05 10:49:31;;;;;;;7.90;3.05;;;19.40;54.80;;;;;;6271710;28;20025;-70
2023/01/05 10:52:32;;;;;;;9.32;3.45;;;19.40;54.80;;;;;;6315824;28;20507;-70
2023/01/05 10:55:43;;;;;;;7.75;3.25;;;19.40;54.80;;;;;;6322697;28;20046;-70
2023/01/05 10:58:45;;;;;;;5.63;2.80;;;19.40;54.80;;;;;;6344481;28;20414;-73
2023/01/05 11:01:48;;;;;;;6.40;2.95;;;19.40;54.80;;;;;;6344832;28;20461;-73
2023/01/05 11:04:50;;;;;;;7.47;3.00;;;19.40;54.80;;;;;;6320368;28;20024;-68
2023/01/05 11:07:54;;;;;;;6.53;2.85;;;19.40;54.80;;;;;;6307319;28;20028;-69
2023/01/05 11:10:57;;;;;;;5.60;2.72;;;19.40;54.80;;;;;;6312168;28;20020;-69
2023/01/05 11:13:58;;;;;;;7.07;2.30;;;19.40;54.70;;;;;;6317573;28;20021;-72
2023/01/05 11:17:05;;;;;;;13.40;2.67;;;19.40;54.00;;;;;;6322164;28;20105;-73
2023/01/05 11:20:15;;;;;;;13.43;2.85;;;19.40;53.50;;;;;;6313633;28;20024;-74
2023/01/05 11:23:41;;;;;;;6.68;2.72;;;19.40;53.50;;;;;;6340901;28;20028;-73
2023/01/05 11:26:49;;;;;;;;;;;19.40;53.70;;;;;;6313495;28;20021;-72
2023/01/05 11:30:24;;;;;;;6.85;2.92;;;19.40;53.80;;;;;;6337831;28;20364;-73
2023/01/05 11:33:27;;;;;;;8.10;2.58;;;19.40;53.90;;;;;;6308205;28;20528;-73
2023/01/05 11:36:28;;;;;;;5.22;2.40;;;19.40;54.00;;;;;;6330580;28;20055;-73
2023/01/05 11:39:30;;;;;;;5.50;2.28;;;19.40;54.00;;;;;;6348722;28;20024;-73
2023/01/05 11:42:41;;;;;;;4.82;2.08;;;19.40;54.00;;;;;;6347720;28;20024;-73
2023/01/05 11:45:49;;;;;;;8.60;2.28;;;19.40;54.10;;;;;;6347574;28;20023;-73
2023/01/05 11:48:56;;;;;;;7.00;2.00;;;19.40;54.10;;;;;;6346512;28;20034;-73
2023/01/05 11:51:56;;;;;;;3.67;2.08;;;19.40;54.20;;;;;;6347795;28;20118;-72
2023/01/05 11:54:57;;;;;;;4.47;1.73;;;19.40;54.20;;;;;;6347814;28;20023;-72
2023/01/05 11:58:12;;;;;;;6.47;2.33;;;19.40;54.30;;;;;;6325967;28;20052;-73
2023/01/05 12:01:38;;;;;;;6.95;1.92;;;19.40;54.30;;;;;;6325930;28;20155;-74
2023/01/05 12:05:10;;;;;;;5.97;2.22;;;19.50;54.80;;;;;;6333627;28;20468;-74
2023/01/05 12:08:26;;;;;;;3.78;1.67;;;19.50;54.50;;;;;;6302716;28;20032;-73
2023/01/05 12:11:34;;;;;;;5.78;1.95;;;19.50;54.40;;;;;;6341383;28;20046;-74
2023/01/05 12:15:29;;;;;;;2.83;1.42;;;19.50;54.50;;;;;;6333821;28;20111;-75
2023/01/05 12:18:46;;;;;;;3.97;1.45;;;19.60;54.40;;;;;;6248741;28;20395;-75
2023/01/05 12:22:08;;;;;;;4.68;1.95;;;19.70;54.50;;;;;;6312667;28;20549;-74
2023/01/05 12:25:49;;;;;;;4.65;1.30;;;19.60;54.20;;;;;;6325092;28;20039;-74
2023/01/05 12:29:02;;;;;;;8.60;1.77;;;19.70;53.90;;;;;;6336021;28;20384;-74
2023/01/05 12:32:29;;;;;;;6.35;1.77;;;19.70;53.80;;;;;;6305154;28;20225;-74
2023/01/05 12:35:32;;;;;;;3.28;1.52;;;19.70;53.60;;;;;;6329617;28;20099;-74
2023/01/05 12:38:33;;;;;;;2.88;1.10;;;19.80;53.60;;;;;;6346193;28;20035;-74
2023/01/05 12:41:58;;;;;;;4.85;1.65;;;19.80;53.70;;;;;;6320858;28;20058;-73
2023/01/05 12:45:25;;;;;;;8.50;1.75;;;19.80;53.70;;;;;;6333605;28;20085;-74
2023/01/05 12:48:35;;;;;;;7.40;1.40;;;19.80;53.90;;;;;;6336315;28;20376;-74
2023/01/05 12:51:44;;;;;;;4.88;1.60;;;19.90;53.60;;;;;;6295574;28;20408;-74
2023/01/05 12:54:54;;;;;;;4.65;1.70;;;19.90;53.60;;;;;;6338735;28;20024;-74
2023/01/05 12:58:28;;;;;;;5.05;1.60;;;19.90;53.30;;;;;;6330839;28;20048;-75
2023/01/05 13:01:32;;;;;;;5.25;1.63;;;19.90;53.30;;;;;;6342028;28;20043;-74
2023/01/05 13:04:44;;;;;;;4.22;1.33;;;19.90;53.30;;;;;;6343859;28;20023;-75
2023/01/05 13:07:56;;;;;;;3.97;1.52;;;19.90;53.30;;;;;;6344502;28;20023;-74
2023/01/05 13:11:03;;;;;;;4.93;1.60;;;19.90;53.40;;;;;;6330053;28;20024;-74
2023/01/05 13:14:13;;;;;;;2.65;1.30;;;19.90;53.50;;;;;;6337409;28;20020;-73
2023/01/05 13:17:23;;;;;;;10.05;2.22;;;19.90;53.50;;;;;;6341649;28;20063;-73
2023/01/05 13:20:39;;;;;;;11.15;2.25;;;20.00;53.50;;;;;;6319918;28;20385;-74
2023/01/05 13:23:44;;;;;;;5.20;1.75;;;20.00;53.10;;;;;;6334684;28;20119;-73
2023/01/05 13:26:45;;;;;;;;;;;20.10;52.80;;;;;;6306545;28;20025;-74
2023/01/05 13:29:49;;;;;;;5.95;1.85;;;20.10;52.80;;;;;;6316618;28;19908;-73
2023/01/05 13:33:17;;;;;;;2.85;1.15;;;20.20;52.40;;;;;;6318677;28;20032;-70
2023/01/05 13:36:32;;;;;;;6.50;1.40;;;20.20;52.20;;;;;;6329705;28;20024;-73
2023/01/05 13:39:47;;;;;;;12.13;2.72;;;20.30;52.20;;;;;;6309965;28;20437;-74
2023/01/05 13:43:14;;;;;;;8.73;2.40;;;20.30;52.50;;;;;;6303306;28;20031;-73
2023/01/05 13:46:25;;;;;;;5.55;2.05;;;20.30;52.80;;;;;;6340703;28;20361;-72
2023/01/05 13:49:44;;;;;;;9.50;1.58;;;20.30;52.90;;;;;;6344026;28;20019;-73
2023/01/05 13:53:09;;;;;;;5.10;1.90;;;20.20;52.70;;;;;;6321699;28;20395;-73
2023/01/05 13:56:32;;;;;;;10.02;2.20;;;20.20;53.60;;;;;;6342613;28;20043;-73
2023/01/05 13:59:34;;;;;;;10.43;2.42;;;20.30;52.90;;;;;;6344081;28;20080;-73
2023/01/05 14:02:45;;;;;;;11.05;2.97;;;20.40;53.00;;;;;;6341804;28;20034;-72
2023/01/05 14:05:55;;;;;;;9.73;2.17;;;20.40;52.40;;;;;;6314113;28;20491;-73
2023/01/05 14:09:13;;;;;;;10.95;2.80;;;20.40;52.80;;;;;;6330658;28;20024;-74
2023/01/05 14:12:14;;;;;;;14.65;3.40;;;20.40;52.80;;;;;;6326390;28;20020;-72
2023/01/05 14:15:27;;;;;;;12.57;3.17;;;20.50;52.80;;;;;;6318725;28;20395;-73
2023/01/05 14:18:47;;;;;;;9.65;3.10;;;20.50;52.80;;;;;;6318708;28;20073;-73
2023/01/05 14:21:52;;;;;;;12.35;3.53;;;20.40;52.90;;;;;;6322230;28;20057;-73
2023/01/05 14:24:53;;;;;;;17.08;3.30;;;20.40;52.80;;;;;;6317174;28;20026;-74
2023/01/05 14:28:22;;;;;;;11.25;2.65;;;20.40;52.70;;;;;;6318673;28;20358;-73
2023/01/05 14:31:26;;;;;;;8.88;2.95;;;20.50;52.20;;;;;;6291451;28;20037;-74
2023/01/05 14:34:28;;;;;;;14.48;2.85;;;20.60;52.40;;;;;;6317423;28;20065;-74
2023/01/05 14:37:40;;;;;;;22.25;3.60;;;20.60;52.90;;;;;;6358844;28;20400;-72
2023/01/05 14:40:44;;;;;;;11.63;3.15;;;20.60;53.00;;;;;;6323681;28;20465;-68
2023/01/05 14:43:56;;;;;;;13.65;3.00;;;20.50;52.30;;;;;;6328814;28;20074;-73
2023/01/05 14:46:57;;;;;;;13.30;3.20;;;20.60;51.90;;;;;;6338307;28;20032;-73
2023/01/05 14:50:02;;;;;;;12.80;2.65;;;20.60;52.40;;;;;;6338474;28;20015;-74
2023/01/05 14:53:14;;;;;;;7.93;2.97;;;20.70;52.10;;;;;;6348456;28;20456;-73
2023/01/05 14:56:34;;;;;;;8.02;2.38;;;20.50;52.20;;;;;;6345525;28;20043;-74
2023/01/05 14:59:35;;;;;;;9.07;2.20;;;20.40;52.30;;;;;;6349243;27;20035;-74
2023/01/05 15:02:53;;;;;;;9.02;2.38;;;20.40;51.90;;;;;;6348305;28;20042;-74
2023/01/05 15:06:12;;;;;;;10.52;2.63;;;20.30;52.70;;;;;;6348365;28;20396;-73
2023/01/05 15:09:37;;;;;;;6.57;2.58;;;20.30;52.60;;;;;;6309598;28;20030;-73
2023/01/05 15:13:01;;;;;;;12.83;2.00;;;20.30;52.60;;;;;;6326588;28;20089;-71
2023/01/05 15:16:08;;;;;;;12.75;1.85;;;20.20;52.70;;;;;;6313157;28;20397;-73
2023/01/05 15:19:15;;;;;;;7.43;2.17;;;20.20;52.80;;;;;;6307997;28;20498;-73
2023/01/05 15:22:47;;;;;;;8.75;1.90;;;20.20;52.70;;;;;;6343469;28;20019;-73
2023/01/05 15:26:15;;;;;;;9.32;1.90;;;20.10;52.90;;;;;;6315725;28;20024;-73
2023/01/05 15:29:38;;;;;;;7.95;1.80;;;20.10;53.10;;;;;;6320991;28;20114;-73
2023/01/05 15:32:42;;;;;;;8.95;1.98;;;20.10;53.10;;;;;;6322054;28;20024;-71
2023/01/05 15:35:52;;;;;;;7.45;1.98;;;20.10;53.00;;;;;;6323990;28;20446;-74
2023/01/05 15:38:54;;;;;;;6.22;1.73;;;20.10;53.20;;;;;;6328355;27;20024;-74
2023/01/05 15:42:07;;;;;;;6.57;1.83;;;20.10;53.10;;;;;;6344944;28;20035;-71
2023/01/05 15:45:22;;;;;;;6.00;1.90;;;20.00;53.00;;;;;;6347198;27;20031;-73
2023/01/05 15:48:43;;;;;;;3.70;1.88;;;20.00;53.00;;;;;;6345993;28;20046;-74
2023/01/05 15:51:50;;;;;;;3.53;1.50;;;20.00;53.30;;;;;;6344636;28;20515;-74
2023/01/05 15:55:18;;;;;;;6.00;1.75;;;20.00;53.30;;;;;;6346367;28;20483;-75
2023/01/05 15:58:20;;;;;;;3.72;1.60;;;20.00;53.20;;;;;;6341901;28;20092;-74
2023/01/05 16:01:21;;;;;;;3.28;1.30;;;20.00;53.40;;;;;;6347143;28;20106;-74
2023/01/05 16:04:21;;;;;;;7.00;1.73;;;20.00;53.30;;;;;;6344792;28;20050;-74
2023/01/05 16:07:22;;;;;;;4.30;1.58;;;20.00;53.20;;;;;;6321421;28;20061;-73
2023/01/05 16:10:29;;;;;;;6.15;1.58;;;20.00;53.20;;;;;;6326425;28;20078;-72
2023/01/05 16:13:41;;;;;;;3.03;1.20;;;20.00;53.30;;;;;;6319712;28;20028;-74
2023/01/05 16:17:01;;;;;;;4.10;1.70;;;20.00;53.70;;;;;;6336657;28;20106;-71
2023/01/05 16:20:17;;;;;;;1.80;1.10;;;20.00;53.50;;;;;;6300046;28;20374;-74
2023/01/05 16:23:45;;;;;;;3.85;1.35;;;20.00;53.40;;;;;;6318483;28;20032;-74
2023/01/05 16:26:46;;;;;;;3.45;1.20;;;20.00;53.40;;;;;;6303715;28;20094;-72
2023/01/05 16:29:47;;;;;;;2.70;1.40;;;20.00;53.60;;;;;;6295586;28;20100;-73
2023/01/05 16:33:01;;;;;;;3.25;1.63;;;20.00;53.80;;;;;;6361023;27;20704;-73
2023/01/05 16:36:20;;;;;;;3.17;1.25;;;20.00;53.80;;;;;;6352576;27;20028;-72
2023/01/05 16:39:25;;;;;;;3.75;1.40;;;20.00;53.70;;;;;;6334962;28;20050;-72
2023/01/05 16:42:38;;;;;;;4.70;1.65;;;20.00;53.70;;;;;;6324934;28;20111;-72
2023/01/05 16:45:39;;;;;;;3.72;1.35;;;20.00;53.50;;;;;;6320636;28;20020;-72
2023/01/05 16:48:40;;;;;;;4.80;1.88;;;20.00;53.30;;;;;;6320441;28;20069;-71
2023/01/05 16:51:41;;;;;;;3.70;1.80;;;19.90;53.10;;;;;;6320695;28;20063;-72
2023/01/05 16:54:43;;;;;;;5.07;1.83;;;19.90;52.90;;;;;;6318630;28;20027;-72